FIMP/MRU METAR and TAF weather

Enter ICAO airport designator
Station Type Date Time Source
FIMP METAR 2021/07/26 17:00 UTC NOAA

FIMP 261700Z 16008KT 8000 VCSH FEW009 SCT015 20/19 Q1021


Station Type Date Time Source
FIMP Decoded METAR 2021/07/26 17:00 UTC NOAA

Plaisance Mauritius , Mauritius (FIMP) 20-26S 057-40E 57M
Jul 26, 2021 - 01:00 PM EDT / 2021.07.26 1700 UTC
Wind: from the SSE (160 degrees) at 9 MPH (8 KT):0
Visibility: 4 mile(s):0
Sky conditions: partly cloudy
Weather: showers in the vicinity
Temperature: 68 F (20 C)
Dew Point: 66 F (19 C)
Relative Humidity: 93%
Pressure (altimeter): 30.15 in. Hg (1021 hPa)
ob: FIMP 261700Z 16008KT 8000 VCSH FEW009 SCT015 20/19 Q1021
cycle: 17

Station Type Date Time Source
FIMP TAF 2021/07/26 18:08 UTC NOAA

TAF FIMP 261705Z 2618/2800 14010G20KT 7000 -SHRA FEW008 BKN016

Example: see airport list